Disclaimer

Please do not use the information listed here in-flight or in-navigation, as they are not provided to us by the airports but are provided by volunteers, so they might be outdated.

Search


Regions


Airport information page

No radio frequency information is available.

Airport informations:
Latitude: 32° 18' 22.16" N
Longitude: 010° 22' 55.59" E
Elevation: 1004 feet - 306 meters
Operating hours: N/A
Operating agency: Military
Timezone: N/A
Fuel: 100/130 MIL Spec, low lead, aviation gasoline (BLUE)

Runway information:
02/20 - 7812 x 148 feet< - >2381 x 45 meters

Recent METARs:
DTTD 130300Z AUTO 16003KT 100V230 NCD 16/14 Q1023
DTTD 130300Z AUTO 16003KT 100V230 NCD 16/14 Q1023
DTTD 130400Z AUTO VRB02KT NCD 15/14 Q1023

Airport on the map: